Time;durP1;ratioP1;P1;durP2;ratioP2;P2;SDS_P1;SDS_P2;PMS_P1;PMS_P2;Temp;Humidity;BMP_temperature;BMP_pressure;BME280_temperature;BME280_humidity;BME280_pressure;Samples;Min_cycle;Max_cycle;Signal;HPM_P1;HPM_P2
2022/04/23 00:00:22;;;;;;;;;27.00;24.00;;;;;13.44;100.00;99531.75;6226115;22;44894;-85
2022/04/23 00:02:47;;;;;;;;;25.75;25.50;;;;;13.37;100.00;99523.47;6220228;22;45364;-85
2022/04/23 00:05:13;;;;;;;;;29.50;24.75;;;;;13.34;100.00;99521.13;6215314;22;44650;-86
2022/04/23 00:07:38;;;;;;;;;27.50;24.00;;;;;13.32;100.00;99519.59;6213407;22;44832;-84
2022/04/23 00:10:04;;;;;;;;;36.75;32.75;;;;;13.31;100.00;99523.25;6211952;22;45441;-85
2022/04/23 00:12:30;;;;;;;;;36.25;31.75;;;;;13.28;100.00;99521.72;6215445;22;45357;-84
2022/04/23 00:14:56;;;;;;;;;29.00;25.25;;;;;13.26;100.00;99521.03;6214767;22;44724;-85
2022/04/23 00:17:21;;;;;;;;;34.50;29.00;;;;;13.22;100.00;99514.31;6214928;22;44873;-85
2022/04/23 00:19:47;;;;;;;;;36.67;31.00;;;;;13.20;100.00;99515.41;6212159;22;47497;-85
2022/04/23 00:22:15;;;;;;;;;26.67;23.00;;;;;13.19;100.00;99508.41;6216551;22;44600;-86
2022/04/23 00:24:41;;;;;;;;;30.33;26.67;;;;;13.17;100.00;99513.06;6192504;22;44708;-83
2022/04/23 00:27:07;;;;;;;;;30.50;30.50;;;;;13.15;100.00;99502.56;6220997;22;45274;-85
2022/04/23 00:29:32;;;;;;;;;38.75;28.75;;;;;13.13;100.00;99507.19;6215459;22;45191;-85
2022/04/23 00:31:58;;;;;;;;;33.75;30.25;;;;;13.10;100.00;99503.00;6214618;22;44672;-84
2022/04/23 00:34:24;;;;;;;;;35.67;34.67;;;;;13.07;100.00;99503.28;6214522;22;45318;-83
2022/04/23 00:36:49;;;;;;;;;29.00;27.75;;;;;13.05;100.00;99499.06;6188520;22;45086;-86
2022/04/23 00:39:14;;;;;;;;;32.67;29.33;;;;;13.05;100.00;99491.06;6218641;22;45153;-84
2022/04/23 00:41:51;;;;;;;;;32.75;28.50;;;;;13.04;100.00;99492.91;6191352;22;45278;-84
2022/04/23 00:44:21;;;;;;;;;33.25;30.25;;;;;13.01;100.00;99487.88;6219392;22;45215;-85
2022/04/23 00:46:46;;;;;;;;;32.00;30.33;;;;;13.01;100.00;99487.06;6217588;22;45196;-85
2022/04/23 00:49:13;;;;;;;;;30.50;29.25;;;;;12.99;100.00;99483.69;6217021;22;44927;-85
2022/04/23 00:51:41;;;;;;;;;27.50;25.25;;;;;12.96;100.00;99473.31;6217492;22;44757;-84
2022/04/23 00:54:09;;;;;;;;;30.33;28.67;;;;;12.96;100.00;99474.16;6189598;22;44750;-84
2022/04/23 00:56:39;;;;;;;;;33.00;30.00;;;;;12.94;100.00;99461.97;6215258;22;44889;-84
2022/04/23 00:59:12;;;;;;;;;32.33;28.00;;;;;12.94;100.00;99470.78;6187702;22;46000;-84
2022/04/23 01:01:42;;;;;;;;;36.00;29.33;;;;;12.94;100.00;99467.28;6187168;22;44734;-83
2022/04/23 01:04:09;;;;;;;;;29.75;29.50;;;;;12.93;100.00;99461.13;6186674;22;45129;-83
2022/04/23 01:06:35;;;;;;;;;27.00;25.00;;;;;12.92;100.00;99464.78;6187169;22;45352;-82
2022/04/23 01:09:08;;;;;;;;;30.33;28.67;;;;;12.90;100.00;99460.59;6215247;22;45586;-84
2022/04/23 01:11:35;;;;;;;;;34.50;28.75;;;;;12.86;100.00;99452.91;6187752;22;45176;-83
2022/04/23 01:14:03;;;;;;;;;29.00;27.67;;;;;12.86;100.00;99454.69;6213541;22;45231;-83
2022/04/23 01:16:28;;;;;;;;;28.33;27.00;;;;;12.86;100.00;99450.22;6217740;22;44760;-84
2022/04/23 01:18:54;;;;;;;;;34.33;33.33;;;;;12.84;100.00;99444.19;6219383;22;46133;-85
2022/04/23 01:21:20;;;;;;;;;29.67;25.67;;;;;12.82;100.00;99448.00;6228438;22;44694;-85
2022/04/23 01:23:53;;;;;;;;;35.67;25.67;;;;;12.80;100.00;99440.16;6222538;22;44611;-83
2022/04/23 01:26:31;;;;;;;;;29.67;27.33;;;;;12.79;100.00;99448.31;6222465;22;44944;-84
2022/04/23 01:28:57;;;;;;;;;31.00;26.67;;;;;12.76;100.00;99445.91;6226829;22;45306;-83
2022/04/23 01:31:24;;;;;;;;;34.33;30.33;;;;;12.74;100.00;99448.75;6213301;22;45255;-82
2022/04/23 01:33:50;;;;;;;;;26.00;25.33;;;;;12.74;100.00;99445.25;6187874;22;45408;-84
2022/04/23 01:36:15;;;;;;;;;29.33;28.33;;;;;12.69;100.00;99448.34;6220324;22;44708;-83
2022/04/23 01:38:44;;;;;;;;;29.00;26.25;;;;;12.69;100.00;99444.84;6230029;22;45157;-84
2022/04/23 01:41:10;;;;;;;;;32.00;29.67;;;;;12.68;100.00;99443.19;6234194;22;44619;-84
2022/04/23 01:43:35;;;;;;;;;25.00;21.67;;;;;12.64;100.00;99439.97;6232966;22;44646;-83
2022/04/23 01:46:01;;;;;;;;;32.00;28.33;;;;;12.63;100.00;99440.13;6231162;22;45146;-83
2022/04/23 01:48:26;;;;;;;;;21.67;19.67;;;;;12.63;100.00;99435.63;6235239;22;44968;-82
2022/04/23 01:50:53;;;;;;;;;24.33;23.33;;;;;12.63;100.00;99440.97;6231964;22;44608;-84
2022/04/23 01:53:19;;;;;;;;;33.00;29.33;;;;;12.63;100.00;99435.63;6230537;22;44746;-83
2022/04/23 01:55:45;;;;;;;;;33.33;31.33;;;;;12.64;100.00;99425.81;6227247;22;44849;-84
2022/04/23 01:58:10;;;;;;;;;43.33;34.67;;;;;12.63;100.00;99434.78;6226483;22;45136;-84
2022/04/23 02:00:36;;;;;;;;;32.67;31.00;;;;;12.62;100.00;99428.63;6228017;22;44746;-83
2022/04/23 02:03:04;;;;;;;;;33.33;29.00;;;;;12.60;100.00;99435.91;6201266;22;45317;-84
2022/04/23 02:05:29;;;;;;;;;30.67;26.00;;;;;12.56;100.00;99432.69;6228741;22;44774;-84
2022/04/23 02:07:55;;;;;;;;;36.33;31.00;;;;;12.56;100.00;99426.53;6226253;22;46586;-83
2022/04/23 02:10:20;;;;;;;;;33.00;30.00;;;;;12.56;100.00;99427.38;6200131;22;44615;-83
2022/04/23 02:12:46;;;;;;;;;34.00;31.33;;;;;12.55;100.00;99419.53;6228845;22;44632;-83
2022/04/23 02:15:13;;;;;;;;;39.67;34.67;;;;;12.51;100.00;99423.47;6200262;22;44688;-83
2022/04/23 02:17:40;;;;;;;;;36.00;31.67;;;;;12.52;100.00;99422.47;6221427;22;46000;-85
2022/04/23 02:20:08;;;;;;;;;36.67;31.67;;;;;12.49;100.00;99415.63;6225276;22;44662;-83
2022/04/23 02:22:33;;;;;;;;;32.33;30.33;;;;;12.47;100.00;99422.91;6227586;22;44690;-84
2022/04/23 02:24:59;;;;;;;;;30.33;28.67;;;;;12.45;100.00;99411.59;6196573;22;45336;-84
2022/04/23 02:27:24;;;;;;;;;28.00;27.00;;;;;12.44;100.00;99415.25;6194971;22;46318;-84
2022/04/23 02:29:54;;;;;;;;;33.00;29.33;;;;;12.43;100.00;99420.72;6215584;22;45233;-84
2022/04/23 02:32:19;;;;;;;;;40.00;32.33;;;;;12.38;100.00;99410.50;6215266;22;45323;-85
2022/04/23 02:34:45;;;;;;;;;29.00;27.00;;;;;12.33;100.00;99413.63;6215570;22;44856;-83
2022/04/23 02:37:11;;;;;;;;;25.33;25.33;;;;;12.30;100.00;99411.22;6213697;22;46210;-82
2022/04/23 02:39:38;;;;;;;;;36.33;30.67;;;;;12.32;100.00;99419.91;6190022;22;45267;-83
2022/04/23 02:42:05;;;;;;;;;32.67;29.67;;;;;12.29;100.00;99408.72;6192093;22;45458;-83
2022/04/23 02:44:30;;;;;;;;;30.67;28.33;;;;;12.27;100.00;99413.34;6218163;22;44835;-83
2022/04/23 02:46:56;;;;;;;;;22.33;22.33;;;;;12.23;100.00;99402.16;6191630;22;46387;-84
2022/04/23 02:49:22;;;;;;;;;28.67;28.67;;;;;12.19;100.00;99398.13;6214745;22;45350;-83
2022/04/23 02:51:47;;;;;;;;;29.33;28.33;;;;;12.18;100.00;99383.09;6216050;22;45445;-84
2022/04/23 02:54:13;;;;;;;;;30.00;29.33;;;;;12.19;100.00;99395.44;6221523;22;44753;-82
2022/04/23 02:56:39;;;;;;;;;36.67;31.33;;;;;12.15;100.00;99391.41;6219667;22;45157;-86
2022/04/23 02:59:06;;;;;;;;;32.67;29.33;;;;;12.17;100.00;99393.91;6219977;22;45379;-84
2022/04/23 03:01:34;;;;;;;;;37.33;32.33;;;;;12.15;100.00;99385.25;6217798;22;45378;-83
2022/04/23 03:04:00;;;;;;;;;32.33;31.00;;;;;12.13;100.00;99379.19;6219416;22;45278;-84
2022/04/23 03:06:33;;;;;;;;;31.67;27.33;;;;;12.12;100.00;99382.84;6196609;22;47048;-84
2022/04/23 03:09:02;;;;;;;;;31.33;29.67;;;;;12.09;100.00;99379.50;6216064;22;45377;-83
2022/04/23 03:11:31;;;;;;;;;33.00;31.00;;;;;12.06;100.00;99379.78;6188991;22;44816;-84
2022/04/23 03:13:58;;;;;;;;;28.67;28.33;;;;;12.02;100.00;99380.22;6217479;22;45290;-84
2022/04/23 03:16:27;;;;;;;;;34.67;31.00;;;;;12.00;100.00;99385.72;6216251;22;46155;-84
2022/04/23 03:18:53;;;;;;;;;36.33;33.33;;;;;11.97;100.00;99377.16;6214408;22;44643;-84
2022/04/23 03:21:19;;;;;;;;;26.00;26.00;;;;;11.96;100.00;99375.50;6217919;22;44668;-84
2022/04/23 03:23:44;;;;;;;;;28.33;25.33;;;;;11.92;100.00;99369.63;6189350;22;44877;-84
2022/04/23 03:26:11;;;;;;;;;32.67;30.67;;;;;11.93;100.00;99381.09;6192721;22;47104;-84
2022/04/23 03:28:38;;;;;;;;;34.67;32.67;;;;;11.90;100.00;99376.91;6219652;22;44742;-84
2022/04/23 03:31:04;;;;;;;;;30.00;30.00;;;;;11.88;100.00;99370.88;6191940;22;45328;-83
2022/04/23 03:33:29;;;;;;;;;30.00;28.33;;;;;11.86;100.00;99372.88;6216385;22;45273;-86
2022/04/23 03:35:54;;;;;;;;;34.00;32.00;;;;;11.86;100.00;99361.38;6216563;22;46956;-85
2022/04/23 03:38:20;;;;;;;;;27.33;24.33;;;;;11.85;100.00;99368.53;6213100;22;45280;-84
2022/04/23 03:40:53;;;;;;;;;30.33;27.33;;;;;11.86;100.00;99366.69;6187525;22;45129;-84
2022/04/23 03:43:18;;;;;;;;;26.67;26.33;;;;;11.86;100.00;99369.38;6213483;22;45481;-84
2022/04/23 03:45:44;;;;;;;;;30.00;28.00;;;;;11.86;100.00;99367.53;6213953;22;45280;-85
2022/04/23 03:48:09;;;;;;;;;30.00;26.67;;;;;11.83;100.00;99346.53;6187915;22;44620;-84
2022/04/23 03:50:35;;;;;;;;;30.67;29.33;;;;;11.82;100.00;99350.19;6215647;22;45165;-84
2022/04/23 03:53:00;;;;;;;;;31.33;30.00;;;;;11.79;100.00;99347.75;6216661;22;45505;-84
2022/04/23 03:55:26;;;;;;;;;29.00;27.33;;;;;11.78;100.00;99354.06;6188691;22;46654;-83
2022/04/23 03:57:54;;;;;;;;;28.33;28.33;;;;;11.77;100.00;99352.41;6220635;22;45144;-84
2022/04/23 04:00:21;;;;;;;;;31.67;30.00;;;;;11.76;100.00;99351.56;6198450;22;45245;-85
2022/04/23 04:02:46;;;;;;;;;33.00;30.67;;;;;11.73;100.00;99341.22;6195509;22;44825;-83
2022/04/23 04:05:13;;;;;;;;;31.33;27.00;;;;;11.74;100.00;99342.03;6191769;22;47190;-82
2022/04/23 04:07:45;;;;;;;;;33.00;32.00;;;;;11.73;100.00;99345.69;6217489;22;45147;-84
2022/04/23 04:10:13;;;;;;;;;21.67;19.67;;;;;11.73;100.00;99340.38;6190336;22;44759;-85
2022/04/23 04:12:38;;;;;;;;;32.33;30.00;;;;;11.71;100.00;99345.84;6191767;22;45531;-84
2022/04/23 04:15:09;;;;;;;;;34.33;28.67;;;;;11.69;100.00;99346.94;6215476;22;45087;-84
2022/04/23 04:17:36;;;;;;;;;26.67;25.67;;;;;11.66;100.00;99336.63;6214963;22;45076;-84
2022/04/23 04:20:02;;;;;;;;;31.67;29.00;;;;;11.62;100.00;99336.06;6187039;22;44798;-83
2022/04/23 04:22:29;;;;;;;;;27.00;24.33;;;;;11.59;100.00;99331.84;6215867;22;44730;-83
2022/04/23 04:24:55;;;;;;;;;33.00;30.00;;;;;11.56;100.00;99326.84;6191468;22;46303;-85
2022/04/23 04:27:20;;;;;;;;;33.33;31.00;;;;;11.57;100.00;99333.84;6221893;22;45331;-84
2022/04/23 04:29:46;;;;;;;;;30.00;29.67;;;;;11.53;100.00;99332.44;6220043;22;44620;-83
2022/04/23 04:32:13;;;;;;;;;34.00;32.00;;;;;11.53;100.00;99340.41;6189738;22;45276;-84
2022/04/23 04:34:39;;;;;;;;;31.33;26.33;;;;;11.48;100.00;99337.34;6214303;22;45260;-84
2022/04/23 04:37:06;;;;;;;;;30.00;30.00;;;;;11.44;100.00;99332.47;6215015;22;44634;-85
2022/04/23 04:39:32;;;;;;;;;33.33;30.33;;;;;11.42;100.00;99329.94;6187874;22;45304;-84
2022/04/23 04:41:57;;;;;;;;;30.00;28.00;;;;;11.41;100.00;99320.31;6212133;22;44955;-85
2022/04/23 04:44:23;;;;;;;;;33.67;27.67;;;;;11.40;100.00;99329.22;6187649;22;47391;-84
2022/04/23 04:46:48;;;;;;;;;37.00;32.00;;;;;11.39;100.00;99326.72;6215091;22;45216;-84
2022/04/23 04:49:14;;;;;;;;;25.33;23.67;;;;;11.37;100.00;99329.53;6216843;22;45400;-84
2022/04/23 04:51:40;;;;;;;;;28.33;28.33;;;;;11.36;100.00;99322.53;6220977;22;45190;-84
2022/04/23 04:54:06;;;;;;;;;32.33;29.33;;;;;11.39;100.00;99332.88;6220136;22;47106;-84
2022/04/23 04:56:32;;;;;;;;;26.00;22.67;;;;;11.38;100.00;99336.53;6216683;22;44847;-85
2022/04/23 04:58:58;;;;;;;;;32.00;30.00;;;;;11.39;100.00;99338.19;6217475;22;45167;-85
2022/04/23 05:01:23;;;;;;;;;33.67;31.67;;;;;11.41;100.00;99335.38;6223433;22;44750;-86
2022/04/23 05:03:49;;;;;;;;;39.67;30.00;;;;;11.41;100.00;99330.94;6225892;22;45402;-85
2022/04/23 05:06:14;;;;;;;;;31.00;26.67;;;;;11.42;100.00;99337.09;6223814;22;44765;-84
2022/04/23 05:08:40;;;;;;;;;33.33;26.00;;;;;11.42;100.00;99332.59;6187316;22;45739;-85
2022/04/23 05:11:05;;;;;;;;;29.67;28.00;;;;;11.43;100.00;99323.66;6214288;22;45441;-84
2022/04/23 05:13:32;;;;;;;;;32.67;30.00;;;;;11.46;100.00;99323.38;6213822;22;45276;-85
2022/04/23 05:15:58;;;;;;;;;27.67;27.00;;;;;11.50;100.00;99323.91;6214591;22;45382;-84
2022/04/23 05:18:24;;;;;;;;;27.33;26.00;;;;;11.55;100.00;99324.31;6214025;22;45387;-84
2022/04/23 05:20:50;;;;;;;;;28.00;26.00;;;;;11.60;100.00;99330.03;6216180;22;45235;-84
2022/04/23 05:23:15;;;;;;;;;25.67;23.33;;;;;11.67;100.00;99320.50;6215144;22;45194;-84
2022/04/23 05:25:41;;;;;;;;;36.67;31.33;;;;;11.71;100.00;99321.06;6214271;22;44719;-85
2022/04/23 05:28:06;;;;;;;;;34.67;30.67;;;;;11.77;100.00;99321.31;6187039;22;45098;-84
2022/04/23 05:30:32;;;;;;;;;33.67;29.00;;;;;11.83;100.00;99318.09;6214775;22;45275;-83
2022/04/23 05:32:57;;;;;;;;;31.67;28.33;;;;;11.88;100.00;99328.31;6213468;22;45325;-84
2022/04/23 05:35:23;;;;;;;;;27.67;26.33;;;;;11.87;100.00;99312.50;6214417;22;45411;-83
2022/04/23 05:37:48;;;;;;;;;33.33;30.33;;;;;11.85;100.00;99317.97;6219175;22;44620;-84
2022/04/23 05:40:13;;;;;;;;;33.00;30.00;;;;;11.88;100.00;99315.00;6214713;22;44790;-86
2022/04/23 05:42:39;;;;;;;;;30.33;26.00;;;;;11.86;100.00;99309.00;6215621;22;45744;-84
2022/04/23 05:45:05;;;;;;;;;31.67;29.00;;;;;11.90;100.00;99314.88;6215556;22;45237;-84
2022/04/23 05:47:30;;;;;;;;;31.33;30.33;;;;;11.97;100.00;99307.97;6216746;22;44667;-85
2022/04/23 05:49:56;;;;;;;;;34.67;31.67;;;;;11.99;100.00;99308.66;6222587;22;45164;-85
2022/04/23 05:52:22;;;;;;;;;25.67;25.33;;;;;12.03;100.00;99310.03;6217659;22;45121;-85
2022/04/23 05:54:48;;;;;;;;;36.33;30.00;;;;;12.12;100.00;99311.81;6214679;22;44798;-84
2022/04/23 05:57:13;;;;;;;;;29.33;28.33;;;;;12.21;100.00;99320.75;6186846;22;45270;-84
2022/04/23 05:59:39;;;;;;;;;35.33;30.33;;;;;12.32;100.00;99328.53;6188433;22;45326;-85
2022/04/23 06:02:04;;;;;;;;;35.00;31.67;;;;;12.43;100.00;99341.66;6189269;22;46426;-84
2022/04/23 06:04:30;;;;;;;;;23.67;23.67;;;;;12.56;100.00;99335.97;6219647;22;44678;-84
2022/04/23 06:06:56;;;;;;;;;28.00;27.33;;;;;12.66;100.00;99326.06;6222817;22;45263;-84
2022/04/23 06:09:21;;;;;;;;;29.00;27.33;;;;;12.72;100.00;99324.66;6220767;22;45124;-83
2022/04/23 06:11:47;;;;;;;;;29.33;29.33;;;;;12.72;100.00;99325.50;6191598;22;46896;-85
2022/04/23 06:14:12;;;;;;;;;34.00;30.67;;;;;12.75;100.00;99335.81;6217674;22;45181;-84
2022/04/23 06:16:38;;;;;;;;;30.00;29.33;;;;;12.84;100.00;99355.41;6225737;22;44766;-85
2022/04/23 06:19:04;;;;;;;;;37.00;32.00;;;;;12.94;100.00;99350.84;6223546;22;45153;-84
2022/04/23 06:21:30;;;;;;;;;33.00;30.67;;;;;13.02;100.00;99342.94;6227903;22;45188;-84
2022/04/23 06:23:55;;;;;;;;;26.50;26.25;;;;;13.09;100.00;99356.47;6225026;22;44740;-85
2022/04/23 06:26:21;;;;;;;;;29.50;26.00;;;;;13.06;100.00;99343.47;6221839;22;45362;-83
2022/04/23 06:28:46;;;;;;;;;30.50;29.25;;;;;13.07;100.00;99342.47;6191051;22;45312;-84
2022/04/23 06:31:12;;;;;;;;;31.67;30.00;;;;;13.02;100.00;99334.09;6216273;22;45024;-84
2022/04/23 06:33:37;;;;;;;;;36.33;32.67;;;;;12.94;100.00;99332.19;6216219;22;45375;-85
2022/04/23 06:36:03;;;;;;;;;32.33;29.00;;;;;12.99;100.00;99342.38;6218981;22;45154;-83
2022/04/23 06:38:28;;;;;;;;;28.67;26.33;;;;;13.23;100.00;99336.47;6221787;22;44754;-85
2022/04/23 06:40:54;;;;;;;;;34.67;32.00;;;;;13.38;100.00;99334.91;6196282;22;47190;-86
2022/04/23 06:43:19;;;;;;;;;34.75;30.25;;;;;13.30;100.00;99332.22;6197542;22;45247;-84
2022/04/23 06:45:45;;;;;;;;;32.25;29.50;;;;;13.36;100.00;99337.75;6196816;22;44684;-84
2022/04/23 06:48:10;;;;;;;;;31.00;28.75;;;;;13.45;100.00;99327.97;6190601;22;44909;-85
2022/04/23 06:50:36;;;;;;;;;35.25;30.75;;;;;13.42;100.00;99332.78;6215290;22;44897;-84
2022/04/23 06:53:03;;;;;;;;;34.67;34.33;;;;;13.48;100.00;99326.81;6192592;22;44793;-83
2022/04/23 06:55:30;;;;;;;;;31.50;29.75;;;;;13.46;100.00;99335.00;6219731;22;45287;-85
2022/04/23 06:57:55;;;;;;;;;30.00;28.75;;;;;13.42;100.00;99333.63;6191059;22;45394;-85
2022/04/23 07:00:22;;;;;;;;;31.50;29.75;;;;;13.45;100.00;99327.16;6217877;22;45257;-83
2022/04/23 07:02:49;;;;;;;;;32.25;23.75;;;;;13.41;100.00;99329.28;6217070;22;44742;-84
2022/04/23 07:05:14;;;;;;;;;35.33;33.67;;;;;13.40;100.00;99332.94;6220404;22;44758;-84
2022/04/23 07:07:40;;;;;;;;;28.50;25.75;;;;;13.36;100.00;99324.41;6219118;22;45220;-84
2022/04/23 07:10:06;;;;;;;;;31.75;26.75;;;;;13.31;100.00;99326.72;6223802;22;45080;-85
2022/04/23 07:12:33;;;;;;;;;34.67;32.33;;;;;13.42;100.00;99330.13;6230718;22;44608;-85
2022/04/23 07:14:59;;;;;;;;;40.33;33.33;;;;;13.41;100.00;99323.13;6234112;22;44721;-85
2022/04/23 07:17:25;;;;;;;;;32.75;28.50;;;;;13.30;100.00;99322.38;6223671;22;45485;-85
2022/04/23 07:19:53;;;;;;;;;37.67;33.33;;;;;13.31;100.00;99323.22;6189617;22;46701;-85
2022/04/23 07:22:19;;;;;;;;;26.50;25.00;;;;;13.35;100.00;99322.75;6188661;22;45275;-86
2022/04/23 07:24:45;;;;;;;;;35.00;32.00;;;;;13.27;100.00;99324.50;6215182;22;45324;-85
2022/04/23 07:27:11;;;;;;;;;33.00;29.33;;;;;13.23;100.00;99321.31;6214735;22;44823;-85
2022/04/23 07:29:37;;;;;;;;;31.00;28.50;;;;;13.31;100.00;99321.38;6188225;22;46641;-87
2022/04/23 07:32:04;;;;;;;;;29.75;28.75;;;;;13.34;100.00;99334.41;6216114;22;45208;-86
2022/04/23 07:37:28;;;;;;;;;35.25;31.50;;;;;13.59;100.00;99334.59;6214970;22;45256;-84
2022/04/23 07:39:57;;;;;;;;;35.00;30.00;;;;;13.78;100.00;99333.50;6190933;22;46666;-85
2022/04/23 07:42:22;;;;;;;;;42.00;36.00;;;;;13.91;100.00;99328.59;6222391;22;44663;-83
2022/04/23 07:44:47;;;;;;;;;38.25;36.00;;;;;14.07;100.00;99322.50;6197342;22;44647;-86
2022/04/23 07:47:13;;;;;;;;;35.00;30.00;;;;;14.17;100.00;99322.38;6220418;22;45181;-85
2022/04/23 07:49:38;;;;;;;;;35.75;31.25;;;;;14.19;100.00;99318.56;6191356;22;45212;-85
2022/04/23 07:52:04;;;;;;;;;36.67;36.00;;;;;14.19;100.00;99320.38;6217895;22;45180;-84
2022/04/23 07:54:29;;;;;;;;;36.25;32.00;;;;;14.25;100.00;99317.06;6193098;22;44790;-84
2022/04/23 07:56:55;;;;;;;;;33.75;30.25;;;;;14.26;100.00;99321.41;6218898;22;45314;-86
2022/04/23 07:59:21;;;;;;;;;34.25;32.25;;;;;14.30;100.00;99312.91;6190106;22;46257;-85
2022/04/23 08:01:47;;;;;;;;;33.75;31.50;;;;;14.48;100.00;99309.34;6194194;22;44681;-84
2022/04/23 08:04:12;;;;;;;;;27.75;22.25;;;;;14.68;100.00;99313.38;6196273;22;45253;-85
2022/04/23 08:06:38;;;;;;;;;24.00;23.00;;;;;14.72;100.00;99303.22;6224615;22;45294;-85
2022/04/23 08:09:04;;;;;;;;;31.00;28.00;;;;;14.78;100.00;99300.69;6225088;22;45044;-85
2022/04/23 08:11:29;;;;;;;;;32.00;28.75;;;;;14.99;100.00;99308.25;6223450;22;44889;-85
2022/04/23 08:13:56;;;;;;;;;32.50;29.25;;;;;15.21;100.00;99304.06;6222626;22;44740;-86
2022/04/23 08:16:22;;;;;;;;;30.75;30.75;;;;;15.27;100.00;99299.88;6227220;22;45282;-85
2022/04/23 08:18:48;;;;;;;;;32.25;30.50;;;;;15.37;100.00;99301.38;6196487;22;46479;-86
2022/04/23 08:21:14;;;;;;;;;41.00;33.75;;;;;15.32;100.00;99298.38;6216894;22;44794;-86
2022/04/23 08:23:40;;;;;;;;;29.50;27.25;;;;;15.27;100.00;99294.53;6216001;22;45195;-86
2022/04/23 08:26:06;;;;;;;;;31.00;28.00;;;;;15.33;100.00;99292.03;6189936;22;45472;-86
2022/04/23 08:31:16;;;;;;;;;33.00;30.50;;;;;15.31;100.00;99293.19;6215546;22;44786;-86
2022/04/23 08:36:29;;;;;;;;;27.50;24.50;;;;;15.38;100.00;99292.38;6214761;22;45408;-86
2022/04/23 08:38:56;;;;;;;;;36.00;33.00;;;;;15.37;100.00;99292.50;6189070;22;45489;-86
2022/04/23 08:41:28;;;;;;;;;35.75;31.25;;;;;15.46;100.00;99298.69;6189965;22;44817;-85
2022/04/23 08:44:05;;;;;;;;;28.50;23.75;;;;;15.41;100.00;99292.00;6190477;22;45359;-86
2022/04/23 08:46:34;;;;;;;;;47.00;40.67;;;;;15.41;100.00;99292.00;6217382;22;45176;-85
2022/04/23 08:49:10;;;;;;;;;24.00;24.00;;;;;15.42;100.00;99284.81;6188901;22;46177;-84
2022/04/23 08:51:37;;;;;;;;;33.00;31.75;;;;;15.56;100.00;99292.16;6218621;22;45339;-86
2022/04/23 08:54:08;;;;;;;;;20.25;20.25;;;;;15.63;100.00;99285.16;6218569;22;44879;-87
2022/04/23 08:56:35;;;;;;;;;35.25;31.25;;;;;15.72;100.00;99290.50;6188581;22;45220;-85
2022/04/23 08:59:04;;;;;;;;;32.00;30.25;;;;;15.85;100.00;99290.78;6218286;22;45447;-84
2022/04/23 09:01:34;;;;;;;;;29.50;27.75;;;;;15.97;100.00;99292.09;6218604;22;44699;-83
2022/04/23 09:04:01;;;;;;;;;25.25;23.75;;;;;16.21;100.00;99296.53;6212877;22;45216;-83
2022/04/23 09:06:56;;;;;;;;;26.00;25.00;;;;;16.39;100.00;99293.56;6215494;22;45529;-85
2022/04/23 09:09:22;;;;;;;;;33.75;29.75;;;;;16.43;100.00;99289.53;6203952;22;45331;-85
2022/04/23 09:11:55;;;;;;;;;37.75;31.25;;;;;16.53;100.00;99295.50;6220676;22;44742;-85
2022/04/23 09:14:32;;;;;;;;;35.00;30.25;;;;;16.61;100.00;99286.59;6218866;22;44804;-85
2022/04/23 09:25:35;;;;;;;;;36.00;33.75;;;;;16.67;100.00;99283.19;6220525;22;44687;-84
2022/04/23 09:28:23;;;;;;;;;41.00;35.25;;;;;16.77;100.00;99277.63;6222227;22;44593;-84
2022/04/23 09:30:55;;;;;;;;;32.50;30.75;;;;;16.98;100.00;99280.50;6192580;22;45140;-84
2022/04/23 09:33:29;;;;;;;;;31.00;30.00;;;;;17.18;100.00;99278.97;6212642;22;45411;-84
2022/04/23 09:36:03;;;;;;;;;31.00;30.00;;;;;17.44;100.00;99280.41;6215207;22;44705;-84
2022/04/23 09:38:29;;;;;;;;;37.50;31.75;;;;;17.86;100.00;99279.84;6220567;22;44905;-84
2022/04/23 09:40:57;;;;;;;;;35.50;27.25;;;;;18.01;100.00;99273.63;6225683;22;45126;-84
2022/04/23 09:43:30;;;;;;;;;33.25;30.25;;;;;18.16;100.00;99274.44;6222938;22;44749;-84
2022/04/23 09:46:05;;;;;;;;;30.25;28.25;;;;;18.44;100.00;99270.03;6221221;22;44634;-83
2022/04/23 09:48:32;;;;;;;;;30.50;30.50;;;;;18.63;100.00;99273.97;6221744;22;44843;-84
2022/04/23 09:50:58;;;;;;;;;27.00;25.00;;;;;18.75;100.00;99277.84;6197173;22;46733;-84
2022/04/23 09:53:28;;;;;;;;;22.00;19.75;;;;;18.91;100.00;99284.84;6223482;22;44826;-86
2022/04/23 09:56:01;;;;;;;;;26.25;23.25;;;;;19.18;100.00;99283.22;6223469;22;45188;-84
2022/04/23 09:58:29;;;;;;;;;33.25;27.50;;;;;19.38;100.00;99278.00;6220695;22;45247;-82
2022/04/23 10:00:56;;;;;;;;;26.00;23.50;;;;;19.58;100.00;99280.84;6223133;22;45042;-83
2022/04/23 10:03:30;;;;;;;;;25.50;22.50;;;;;19.78;100.00;99272.94;6224298;22;44824;-84
2022/04/23 10:05:57;;;;;;;;;26.25;24.50;;;;;19.94;100.00;99271.78;6225262;22;45183;-83
2022/04/23 10:08:29;;;;;;;;;26.25;23.00;;;;;20.10;100.00;99274.13;6222936;22;45147;-84
2022/04/23 10:11:07;;;;;;;;;26.50;26.50;;;;;20.22;100.00;99267.13;6194559;22;46675;-83
2022/04/23 10:13:33;;;;;;;;;26.60;26.00;;;;;20.23;100.00;99279.59;6220618;22;45153;-84
2022/04/23 10:16:02;;;;;;;;;20.20;20.20;;;;;20.22;100.00;99267.13;6217978;22;44666;-85
2022/04/23 10:18:27;;;;;;;;;26.75;21.50;;;;;20.37;100.00;99272.38;6192561;22;45273;-84
2022/04/23 10:21:00;;;;;;;;;19.25;18.25;;;;;20.45;100.00;99265.97;6222445;22;45178;-84
2022/04/23 10:23:45;;;;;;;;;20.20;16.20;;;;;20.54;100.00;99259.38;6197709;22;45311;-84
2022/04/23 10:26:40;;;;;;;;;26.00;26.00;;;;;20.34;100.00;99261.16;6225715;22;45449;-85
2022/04/23 10:29:09;;;;;;;;;20.50;18.75;;;;;20.62;100.00;99261.91;6162045;23;44914;-84
2022/04/23 10:31:36;;;;;;;;;25.00;25.00;;;;;20.83;100.00;99257.38;6159439;23;45227;-84
2022/04/23 10:34:01;;;;;;;;;22.20;22.00;;;;;20.88;100.00;99255.72;6162354;23;44833;-84
2022/04/23 10:36:27;;;;;;;;;21.50;21.25;;;;;20.98;100.00;99249.91;6136118;23;44671;-85
2022/04/23 10:39:18;;;;;;;;;10.00;9.50;;;;;20.86;100.00;99243.47;6156464;23;44732;-84
2022/04/23 10:41:52;;;;;;;;;22.80;19.80;;;;;20.86;100.00;99252.41;6159550;23;45809;-84
2022/04/23 10:44:30;;;;;;;;;40.50;30.50;;;;;21.15;100.00;99251.16;6153771;23;44722;-84
2022/04/23 10:46:58;;;;;;;;;34.00;31.50;;;;;21.38;100.00;99241.84;6153058;23;45199;-83
2022/04/23 10:49:25;;;;;;;;;36.00;32.25;;;;;21.44;100.00;99252.66;6153270;23;45460;-84
2022/04/23 10:51:50;;;;;;;;;24.50;23.75;;;;;21.64;100.00;99257.19;6152980;23;44919;-84
2022/04/23 10:54:19;;;;;;;;;25.50;21.25;;;;;21.64;98.97;99252.63;6127741;23;45272;-84
2022/04/23 10:56:48;;;;;;;;;22.40;17.40;;;;;21.76;100.00;99247.41;6153314;23;44774;-84
2022/04/23 10:59:33;;;;;;;;;38.50;34.00;;;;;21.68;100.00;99259.25;6130521;23;44805;-84
2022/04/23 11:02:06;;;;;;;;;37.50;29.25;;;;;21.55;99.49;99254.69;6129089;23;45402;-84
2022/04/23 11:04:35;;;;;;;;;24.20;22.00;;;;;21.69;100.00;99246.56;6129421;23;44742;-85
2022/04/23 11:12:50;;;;;;;;;29.40;19.60;;;;;21.89;97.42;99252.75;6222459;22;44828;-85
2022/04/23 11:15:18;;;;;;;;;15.20;15.20;;;;;22.08;96.47;99253.75;6204057;22;45193;-84
2022/04/23 11:17:53;;;;;;;;;12.60;11.60;;;;;22.13;91.89;99256.66;6188247;22;45211;-83
2022/04/23 11:20:34;;;;;;;;;11.20;11.20;;;;;22.06;89.84;99251.25;6217148;22;44809;-84
2022/04/23 11:23:01;;;;;;;;;15.20;12.40;;;;;22.08;90.02;99256.44;6190395;22;45459;-84
2022/04/23 11:25:27;;;;;;;;;9.00;9.00;;;;;22.21;90.93;99242.06;6193152;22;44659;-84
2022/04/23 11:27:53;;;;;;;;;17.00;14.40;;;;;22.23;91.28;99246.22;6194668;22;44687;-86
2022/04/23 11:30:28;;;;;;;;;11.20;10.80;;;;;22.37;90.49;99247.00;6197461;22;45256;-84
2022/04/23 11:32:53;;;;;;;;;10.00;9.80;;;;;22.57;88.44;99241.47;6222861;22;45037;-84